sensor_id;sensor_type;location;lat;lon;timestamp;pressure;altitude;pressure_sealevel;temperature;humidity
73332;BME280;61560;33.718;73.040;2022-12-11T00:02:04;95333.06;;;10.51;69.03
73332;BME280;61560;33.718;73.040;2022-12-11T00:04:31;95327.59;;;10.54;68.94
73332;BME280;61560;33.718;73.040;2022-12-11T00:06:59;95326.84;;;10.50;69.32
73332;BME280;61560;33.718;73.040;2022-12-11T00:09:27;95326.44;;;10.52;69.42
73332;BME280;61560;33.718;73.040;2022-12-11T00:11:54;95322.56;;;10.46;69.24
73332;BME280;61560;33.718;73.040;2022-12-11T00:14:21;95323.34;;;10.46;69.51
73332;BME280;61560;33.718;73.040;2022-12-11T00:16:48;95322.13;;;10.51;69.55
73332;BME280;61560;33.718;73.040;2022-12-11T00:19:15;95325.66;;;10.48;69.28
73332;BME280;61560;33.718;73.040;2022-12-11T00:21:41;95329.56;;;10.50;69.13
73332;BME280;61560;33.718;73.040;2022-12-11T00:24:08;95328.00;;;10.49;69.64
73332;BME280;61560;33.718;73.040;2022-12-11T00:26:35;95316.66;;;10.47;69.26
73332;BME280;61560;33.718;73.040;2022-12-11T00:29:04;95326.47;;;10.41;69.25
73332;BME280;61560;33.718;73.040;2022-12-11T00:31:33;95327.28;;;10.38;69.26
73332;BME280;61560;33.718;73.040;2022-12-11T00:34:02;95317.53;;;10.34;69.48
73332;BME280;61560;33.718;73.040;2022-12-11T00:36:28;95316.34;;;10.35;70.03
73332;BME280;61560;33.718;73.040;2022-12-11T00:38:55;95316.72;;;10.37;69.45
73332;BME280;61560;33.718;73.040;2022-12-11T00:41:21;95321.44;;;10.36;69.25
73332;BME280;61560;33.718;73.040;2022-12-11T00:43:49;95326.13;;;10.36;70.01
73332;BME280;61560;33.718;73.040;2022-12-11T00:46:16;95331.22;;;10.34;69.00
73332;BME280;61560;33.718;73.040;2022-12-11T00:48:43;95315.59;;;10.27;69.58
73332;BME280;61560;33.718;73.040;2022-12-11T00:51:11;95322.63;;;10.28;69.24
73332;BME280;61560;33.718;73.040;2022-12-11T00:53:38;95322.63;;;10.32;69.66
73332;BME280;61560;33.718;73.040;2022-12-11T00:56:15;95329.66;;;10.33;69.96
73332;BME280;61560;33.718;73.040;2022-12-11T00:58:44;95337.47;;;10.31;69.70
73332;BME280;61560;33.718;73.040;2022-12-11T01:01:14;95337.09;;;10.29;69.61
73332;BME280;61560;33.718;73.040;2022-12-11T01:03:43;95337.53;;;10.24;69.66
73332;BME280;61560;33.718;73.040;2022-12-11T01:06:15;95333.66;;;10.11;69.42
73332;BME280;61560;33.718;73.040;2022-12-11T01:08:43;95348.91;;;10.12;70.25
73332;BME280;61560;33.718;73.040;2022-12-11T01:11:13;95352.81;;;10.07;70.36
73332;BME280;61560;33.718;73.040;2022-12-11T01:13:41;95352.03;;;10.10;70.01
73332;BME280;61560;33.718;73.040;2022-12-11T01:16:14;95354.75;;;10.07;70.45
73332;BME280;61560;33.718;73.040;2022-12-11T01:18:42;95374.69;;;10.07;70.01
73332;BME280;61560;33.718;73.040;2022-12-11T01:21:11;95362.19;;;10.06;70.40
73332;BME280;61560;33.718;73.040;2022-12-11T01:23:39;95373.13;;;10.10;70.37
73332;BME280;61560;33.718;73.040;2022-12-11T01:26:07;95375.47;;;10.08;69.77
73332;BME280;61560;33.718;73.040;2022-12-11T01:28:35;95377.44;;;10.07;69.92
73332;BME280;61560;33.718;73.040;2022-12-11T01:31:01;95363.34;;;10.02;69.90
73332;BME280;61560;33.718;73.040;2022-12-11T01:33:28;95372.72;;;10.04;69.71
73332;BME280;61560;33.718;73.040;2022-12-11T01:35:55;95373.94;;;10.03;69.73
73332;BME280;61560;33.718;73.040;2022-12-11T01:38:21;95375.09;;;10.06;70.29
73332;BME280;61560;33.718;73.040;2022-12-11T01:40:50;95371.56;;;10.02;69.74
73332;BME280;61560;33.718;73.040;2022-12-11T01:43:17;95379.00;;;10.05;69.67
73332;BME280;61560;33.718;73.040;2022-12-11T01:45:46;95370.38;;;10.06;69.89
73332;BME280;61560;33.718;73.040;2022-12-11T01:48:18;95376.66;;;10.07;69.82
73332;BME280;61560;33.718;73.040;2022-12-11T01:50:52;95372.38;;;10.06;69.85
73332;BME280;61560;33.718;73.040;2022-12-11T01:53:22;95380.16;;;10.14;69.49
73332;BME280;61560;33.718;73.040;2022-12-11T01:55:51;95391.88;;;10.18;69.13
73332;BME280;61560;33.718;73.040;2022-12-11T01:58:20;95388.38;;;10.18;70.21
73332;BME280;61560;33.718;73.040;2022-12-11T02:00:47;95389.16;;;10.22;70.15
73332;BME280;61560;33.718;73.040;2022-12-11T02:03:14;95387.94;;;10.26;69.40
73332;BME280;61560;33.718;73.040;2022-12-11T02:05:41;95390.31;;;10.28;68.94
73332;BME280;61560;33.718;73.040;2022-12-11T02:08:10;95400.44;;;10.31;69.80
73332;BME280;61560;33.718;73.040;2022-12-11T02:11:28;95400.44;;;10.31;69.92
73332;BME280;61560;33.718;73.040;2022-12-11T02:13:50;95399.25;;;10.39;69.52
73332;BME280;61560;33.718;73.040;2022-12-11T02:16:29;95386.34;;;10.39;69.03
73332;BME280;61560;33.718;73.040;2022-12-11T02:19:43;95392.56;;;10.50;68.73
73332;BME280;61560;33.718;73.040;2022-12-11T02:22:10;95388.63;;;10.58;69.06
73332;BME280;61560;33.718;73.040;2022-12-11T02:32:45;95393.50;;;11.50;65.56
73332;BME280;61560;33.718;73.040;2022-12-11T02:37:44;95383.22;;;13.03;62.07
73332;BME280;61560;33.718;73.040;2022-12-11T02:40:18;95379.19;;;13.84;58.59
73332;BME280;61560;33.718;73.040;2022-12-11T02:42:48;95368.50;;;14.52;55.54
73332;BME280;61560;33.718;73.040;2022-12-11T02:45:17;95374.59;;;14.99;54.15
73332;BME280;61560;33.718;73.040;2022-12-11T02:47:46;95378.69;;;15.62;52.95
73332;BME280;61560;33.718;73.040;2022-12-11T02:50:17;95376.03;;;16.19;51.61
73332;BME280;61560;33.718;73.040;2022-12-11T02:52:47;95382.28;;;16.81;50.42
73332;BME280;61560;33.718;73.040;2022-12-11T02:55:16;95379.69;;;17.15;49.27
73332;BME280;61560;33.718;73.040;2022-12-11T02:57:47;95388.22;;;17.20;48.66
73332;BME280;61560;33.718;73.040;2022-12-11T03:00:17;95396.59;;;17.04;48.88
73332;BME280;61560;33.718;73.040;2022-12-11T03:02:44;95394.84;;;16.69;49.60
73332;BME280;61560;33.718;73.040;2022-12-11T03:05:13;95388.56;;;16.24;50.63
73332;BME280;61560;33.718;73.040;2022-12-11T03:07:42;95395.34;;;16.07;51.21
73332;BME280;61560;33.718;73.040;2022-12-11T03:10:11;95407.25;;;15.88;51.60
73332;BME280;61560;33.718;73.040;2022-12-11T03:12:42;95395.44;;;15.55;52.65
73332;BME280;61560;33.718;73.040;2022-12-11T03:15:13;95405.34;;;15.52;53.15
73332;BME280;61560;33.718;73.040;2022-12-11T03:21:09;95403.03;;;15.51;52.29
73332;BME280;61560;33.718;73.040;2022-12-11T03:23:54;95425.91;;;15.51;53.86
73332;BME280;61560;33.718;73.040;2022-12-11T03:26:23;95422.84;;;15.46;53.81
73332;BME280;61560;33.718;73.040;2022-12-11T03:28:55;95422.94;;;15.42;54.36
73332;BME280;61560;33.718;73.040;2022-12-11T03:31:30;95431.41;;;15.51;54.50
73332;BME280;61560;33.718;73.040;2022-12-11T03:34:06;95434.25;;;15.48;52.45
73332;BME280;61560;33.718;73.040;2022-12-11T03:36:38;95438.78;;;15.38;53.18
73332;BME280;61560;33.718;73.040;2022-12-11T03:39:14;95443.78;;;15.43;53.06
73332;BME280;61560;33.718;73.040;2022-12-11T03:41:44;95443.94;;;15.36;51.28
73332;BME280;61560;33.718;73.040;2022-12-11T03:44:12;95439.41;;;15.46;50.97
73332;BME280;61560;33.718;73.040;2022-12-11T03:46:40;95442.19;;;15.46;49.86
73332;BME280;61560;33.718;73.040;2022-12-11T03:49:16;95450.88;;;15.44;50.34
73332;BME280;61560;33.718;73.040;2022-12-11T03:51:47;95450.59;;;15.39;51.09
73332;BME280;61560;33.718;73.040;2022-12-11T03:54:17;95449.25;;;15.47;51.42
73332;BME280;61560;33.718;73.040;2022-12-11T03:56:44;95453.22;;;15.46;50.84
73332;BME280;61560;33.718;73.040;2022-12-11T03:59:12;95452.81;;;15.47;50.92
73332;BME280;61560;33.718;73.040;2022-12-11T04:01:42;95452.38;;;15.49;50.64
73332;BME280;61560;33.718;73.040;2022-12-11T04:04:10;95460.81;;;15.58;50.40
73332;BME280;61560;33.718;73.040;2022-12-11T04:06:38;95454.09;;;15.43;49.73
73332;BME280;61560;33.718;73.040;2022-12-11T04:09:05;95453.34;;;15.39;49.50
73332;BME280;61560;33.718;73.040;2022-12-11T04:11:31;95442.38;;;15.35;49.72
73332;BME280;61560;33.718;73.040;2022-12-11T04:14:06;95448.91;;;15.45;49.75
73332;BME280;61560;33.718;73.040;2022-12-11T04:16:52;95444.59;;;15.60;49.50
73332;BME280;61560;33.718;73.040;2022-12-11T04:19:22;95448.75;;;15.68;50.05
73332;BME280;61560;33.718;73.040;2022-12-11T04:22:12;95461.28;;;15.73;49.83
73332;BME280;61560;33.718;73.040;2022-12-11T04:24:58;95466.75;;;15.76;49.64
73332;BME280;61560;33.718;73.040;2022-12-11T04:27:25;95473.72;;;15.81;48.51
73332;BME280;61560;33.718;73.040;2022-12-11T04:30:13;95474.25;;;15.92;48.52
73332;BME280;61560;33.718;73.040;2022-12-11T04:32:40;95481.66;;;15.95;48.85
73332;BME280;61560;33.718;73.040;2022-12-11T04:35:08;95482.97;;;15.90;49.14
73332;BME280;61560;33.718;73.040;2022-12-11T04:37:37;95474.34;;;15.88;49.03
73332;BME280;61560;33.718;73.040;2022-12-11T04:40:06;95482.09;;;15.93;48.59
73332;BME280;61560;33.718;73.040;2022-12-11T04:42:35;95478.91;;;15.95;49.07
73332;BME280;61560;33.718;73.040;2022-12-11T04:45:02;95471.06;;;15.93;48.54
73332;BME280;61560;33.718;73.040;2022-12-11T04:47:29;95478.16;;;15.94;48.96
73332;BME280;61560;33.718;73.040;2022-12-11T04:49:55;95482.09;;;15.93;49.23
73332;BME280;61560;33.718;73.040;2022-12-11T04:52:22;95478.31;;;15.87;49.33
73332;BME280;61560;33.718;73.040;2022-12-11T04:54:49;95482.78;;;15.81;49.68
73332;BME280;61560;33.718;73.040;2022-12-11T04:57:18;95488.75;;;15.80;50.52
73332;BME280;61560;33.718;73.040;2022-12-11T04:59:47;95480.19;;;15.74;51.05
73332;BME280;61560;33.718;73.040;2022-12-11T05:02:15;95474.84;;;15.67;51.17
73332;BME280;61560;33.718;73.040;2022-12-11T05:04:42;95489.69;;;15.73;50.21
73332;BME280;61560;33.718;73.040;2022-12-11T05:07:09;95478.28;;;15.71;50.36
73332;BME280;61560;33.718;73.040;2022-12-11T05:09:35;95475.88;;;15.73;49.69
73332;BME280;61560;33.718;73.040;2022-12-11T05:12:03;95482.09;;;15.77;49.76
73332;BME280;61560;33.718;73.040;2022-12-11T05:14:30;95493.06;;;15.81;50.23
73332;BME280;61560;33.718;73.040;2022-12-11T05:16:58;95497.03;;;15.80;50.41
73332;BME280;61560;33.718;73.040;2022-12-11T05:19:25;95504.44;;;15.83;49.34
73332;BME280;61560;33.718;73.040;2022-12-11T05:21:52;95495.41;;;15.82;48.69
73332;BME280;61560;33.718;73.040;2022-12-11T05:24:19;95490.97;;;15.85;48.60
73332;BME280;61560;33.718;73.040;2022-12-11T05:26:46;95494.78;;;15.91;47.91
73332;BME280;61560;33.718;73.040;2022-12-11T05:29:12;95496.00;;;15.90;48.78
73332;BME280;61560;33.718;73.040;2022-12-11T05:31:39;95498.59;;;15.97;48.43
73332;BME280;61560;33.718;73.040;2022-12-11T05:34:06;95502.81;;;16.01;47.79
73332;BME280;61560;33.718;73.040;2022-12-11T05:36:34;95514.06;;;16.10;48.00
73332;BME280;61560;33.718;73.040;2022-12-11T05:39:04;95514.22;;;16.19;47.84
73332;BME280;61560;33.718;73.040;2022-12-11T05:41:31;95504.59;;;16.27;47.63
73332;BME280;61560;33.718;73.040;2022-12-11T05:43:58;95507.50;;;16.36;47.26
73332;BME280;61560;33.718;73.040;2022-12-11T05:46:28;95508.28;;;16.37;47.23
73332;BME280;61560;33.718;73.040;2022-12-11T05:48:58;95508.78;;;16.32;46.96
73332;BME280;61560;33.718;73.040;2022-12-11T05:51:26;95499.75;;;16.31;46.45
73332;BME280;61560;33.718;73.040;2022-12-11T05:53:57;95500.00;;;16.37;46.00
73332;BME280;61560;33.718;73.040;2022-12-11T05:56:29;95502.66;;;16.40;46.26
73332;BME280;61560;33.718;73.040;2022-12-11T05:58:57;95496.28;;;16.44;46.20
73332;BME280;61560;33.718;73.040;2022-12-11T06:03:56;95498.88;;;16.51;45.82
73332;BME280;61560;33.718;73.040;2022-12-11T06:06:24;95502.94;;;16.62;45.77
73332;BME280;61560;33.718;73.040;2022-12-11T06:08:52;95493.13;;;16.74;45.02
73332;BME280;61560;33.718;73.040;2022-12-11T06:11:19;95503.03;;;16.87;44.72
73332;BME280;61560;33.718;73.040;2022-12-11T06:13:48;95498.09;;;16.95;44.47
73332;BME280;61560;33.718;73.040;2022-12-11T06:16:15;95497.38;;;17.07;45.08
73332;BME280;61560;33.718;73.040;2022-12-11T06:18:43;95496.63;;;17.19;45.12
73332;BME280;61560;33.718;73.040;2022-12-11T06:21:24;95498.19;;;17.33;44.66
73332;BME280;61560;33.718;73.040;2022-12-11T06:23:52;95495.78;;;17.47;43.87
73332;BME280;61560;33.718;73.040;2022-12-11T06:26:21;95492.22;;;17.63;43.84
73332;BME280;61560;33.718;73.040;2022-12-11T06:28:48;95488.88;;;17.68;43.86
73332;BME280;61560;33.718;73.040;2022-12-11T06:31:15;95481.22;;;17.59;43.72
73332;BME280;61560;33.718;73.040;2022-12-11T06:33:45;95485.56;;;17.60;44.33
73332;BME280;61560;33.718;73.040;2022-12-11T06:36:15;95482.13;;;17.56;44.52
73332;BME280;61560;33.718;73.040;2022-12-11T06:38:42;95477.56;;;17.62;44.58
73332;BME280;61560;33.718;73.040;2022-12-11T06:41:09;95465.25;;;17.63;44.63
73332;BME280;61560;33.718;73.040;2022-12-11T06:43:40;95466.16;;;17.73;45.03
73332;BME280;61560;33.718;73.040;2022-12-11T06:46:10;95463.16;;;17.80;45.56
73332;BME280;61560;33.718;73.040;2022-12-11T06:48:38;95457.06;;;17.85;45.07
73332;BME280;61560;33.718;73.040;2022-12-11T06:51:09;95455.28;;;17.91;45.06
73332;BME280;61560;33.718;73.040;2022-12-11T06:53:36;95441.78;;;17.93;45.08
73332;BME280;61560;33.718;73.040;2022-12-11T06:56:09;95437.88;;;18.03;45.38
73332;BME280;61560;33.718;73.040;2022-12-11T06:58:38;95433.53;;;18.02;45.02
73332;BME280;61560;33.718;73.040;2022-12-11T07:03:39;95421.56;;;18.18;45.47
73332;BME280;61560;33.718;73.040;2022-12-11T07:06:06;95431.06;;;18.29;44.69
73332;BME280;61560;33.718;73.040;2022-12-11T07:08:34;95419.63;;;18.27;44.57
73332;BME280;61560;33.718;73.040;2022-12-11T07:11:06;95420.41;;;18.28;44.44
73332;BME280;61560;33.718;73.040;2022-12-11T07:13:35;95411.97;;;18.31;44.42
73332;BME280;61560;33.718;73.040;2022-12-11T07:16:02;95417.28;;;18.38;44.95
73332;BME280;61560;33.718;73.040;2022-12-11T07:18:30;95409.38;;;18.49;44.92
73332;BME280;61560;33.718;73.040;2022-12-11T07:20:59;95401.38;;;18.51;44.26
73332;BME280;61560;33.718;73.040;2022-12-11T07:23:28;95396.63;;;18.52;43.56
73332;BME280;61560;33.718;73.040;2022-12-11T07:25:55;95385.66;;;18.48;43.94
73332;BME280;61560;33.718;73.040;2022-12-11T07:28:22;95382.66;;;18.55;43.75
73332;BME280;61560;33.718;73.040;2022-12-11T07:30:49;95385.59;;;18.61;44.02
73332;BME280;61560;33.718;73.040;2022-12-11T07:33:16;95386.38;;;18.61;44.30
73332;BME280;61560;33.718;73.040;2022-12-11T07:35:44;95376.81;;;18.62;44.33
73332;BME280;61560;33.718;73.040;2022-12-11T07:38:12;95382.13;;;18.69;44.68
73332;BME280;61560;33.718;73.040;2022-12-11T07:40:40;95371.94;;;18.66;45.03
73332;BME280;61560;33.718;73.040;2022-12-11T07:43:10;95376.78;;;18.75;44.48
73332;BME280;61560;33.718;73.040;2022-12-11T07:45:37;95378.63;;;18.78;44.20
73332;BME280;61560;33.718;73.040;2022-12-11T07:48:04;95367.53;;;18.78;44.37
73332;BME280;61560;33.718;73.040;2022-12-11T07:50:32;95359.53;;;18.80;44.74
73332;BME280;61560;33.718;73.040;2022-12-11T07:52:58;95360.91;;;18.75;44.22
73332;BME280;61560;33.718;73.040;2022-12-11T07:55:25;95356.31;;;18.82;45.03
73332;BME280;61560;33.718;73.040;2022-12-11T07:57:53;95350.94;;;18.87;44.60
73332;BME280;61560;33.718;73.040;2022-12-11T08:00:20;95349.28;;;18.90;44.65
73332;BME280;61560;33.718;73.040;2022-12-11T08:02:47;95342.16;;;18.89;44.08
73332;BME280;61560;33.718;73.040;2022-12-11T08:05:13;95338.63;;;18.88;42.57
73332;BME280;61560;33.718;73.040;2022-12-11T08:07:40;95341.59;;;18.94;42.66
73332;BME280;61560;33.718;73.040;2022-12-11T08:10:08;95331.69;;;18.93;42.83
73332;BME280;61560;33.718;73.040;2022-12-11T08:12:36;95327.84;;;18.90;42.95
73332;BME280;61560;33.718;73.040;2022-12-11T08:15:04;95330.72;;;18.87;42.15
73332;BME280;61560;33.718;73.040;2022-12-11T08:17:31;95327.63;;;18.85;42.59
73332;BME280;61560;33.718;73.040;2022-12-11T08:20:01;95325.38;;;18.92;42.93
73332;BME280;61560;33.718;73.040;2022-12-11T08:22:30;95314.59;;;18.94;42.74
73332;BME280;61560;33.718;73.040;2022-12-11T08:24:57;95307.16;;;18.91;42.60
73332;BME280;61560;33.718;73.040;2022-12-11T08:27:27;95311.50;;;18.92;42.45
73332;BME280;61560;33.718;73.040;2022-12-11T08:29:53;95301.94;;;18.93;42.26
73332;BME280;61560;33.718;73.040;2022-12-11T08:32:20;95291.44;;;18.88;42.07
73332;BME280;61560;33.718;73.040;2022-12-11T08:34:50;95297.94;;;18.94;41.81
73332;BME280;61560;33.718;73.040;2022-12-11T08:37:18;95282.66;;;18.90;40.57
73332;BME280;61560;33.718;73.040;2022-12-11T08:39:45;95285.75;;;18.92;40.78
73332;BME280;61560;33.718;73.040;2022-12-11T08:42:12;95293.16;;;18.95;40.66
73332;BME280;61560;33.718;73.040;2022-12-11T08:44:38;95288.53;;;18.92;40.17
73332;BME280;61560;33.718;73.040;2022-12-11T08:47:05;95289.41;;;18.89;39.63
73332;BME280;61560;33.718;73.040;2022-12-11T08:49:31;95280.34;;;18.88;40.39
73332;BME280;61560;33.718;73.040;2022-12-11T08:51:58;95280.50;;;18.94;40.40
73332;BME280;61560;33.718;73.040;2022-12-11T08:54:24;95276.06;;;18.96;40.82
73332;BME280;61560;33.718;73.040;2022-12-11T08:56:51;95278.38;;;18.98;40.76
73332;BME280;61560;33.718;73.040;2022-12-11T08:59:17;95260.16;;;18.97;41.33
73332;BME280;61560;33.718;73.040;2022-12-11T09:01:45;95253.38;;;18.98;41.26
73332;BME280;61560;33.718;73.040;2022-12-11T09:04:11;95247.84;;;18.98;41.16
73332;BME280;61560;33.718;73.040;2022-12-11T09:06:39;95251.06;;;18.96;41.48
73332;BME280;61560;33.718;73.040;2022-12-11T09:09:05;95250.75;;;18.94;42.02
73332;BME280;61560;33.718;73.040;2022-12-11T09:11:34;95247.66;;;18.92;41.17
73332;BME280;61560;33.718;73.040;2022-12-11T09:14:02;95239.78;;;18.91;41.04
73332;BME280;61560;33.718;73.040;2022-12-11T09:16:29;95244.44;;;18.94;40.55
73332;BME280;61560;33.718;73.040;2022-12-11T09:18:58;95245.22;;;18.94;40.53
73332;BME280;61560;33.718;73.040;2022-12-11T09:21:27;95233.16;;;18.88;40.52
73332;BME280;61560;33.718;73.040;2022-12-11T09:23:56;95241.47;;;18.88;41.84
73332;BME280;61560;33.718;73.040;2022-12-11T09:26:25;95226.50;;;18.86;41.12
73332;BME280;61560;33.718;73.040;2022-12-11T09:28:53;95221.72;;;18.86;40.73
73332;BME280;61560;33.718;73.040;2022-12-11T09:31:26;95217.06;;;18.83;40.45
73332;BME280;61560;33.718;73.040;2022-12-11T09:33:57;95217.53;;;18.82;40.70
73332;BME280;61560;33.718;73.040;2022-12-11T09:36:24;95206.56;;;18.78;40.73
73332;BME280;61560;33.718;73.040;2022-12-11T09:38:52;95202.72;;;18.75;41.31
73332;BME280;61560;33.718;73.040;2022-12-11T09:41:45;95200.69;;;18.76;42.53
73332;BME280;61560;33.718;73.040;2022-12-11T09:44:47;95198.69;;;18.76;41.58
73332;BME280;61560;33.718;73.040;2022-12-11T09:47:31;95196.69;;;18.77;41.92
73332;BME280;61560;33.718;73.040;2022-12-11T09:50:22;95190.38;;;18.76;42.37
73332;BME280;61560;33.718;73.040;2022-12-11T09:53:22;95196.38;;;18.75;42.56
73332;BME280;61560;33.718;73.040;2022-12-11T09:59:17;95198.06;;;18.72;42.54
73332;BME280;61560;33.718;73.040;2022-12-11T10:07:21;95189.88;;;18.69;42.64
73332;BME280;61560;33.718;73.040;2022-12-11T10:12:33;95180.16;;;18.64;42.97
73332;BME280;61560;33.718;73.040;2022-12-11T10:17:47;95168.56;;;18.57;43.27
73332;BME280;61560;33.718;73.040;2022-12-11T10:20:29;95166.69;;;18.54;42.58
73332;BME280;61560;33.718;73.040;2022-12-11T10:23:06;95161.59;;;18.52;42.14
73332;BME280;61560;33.718;73.040;2022-12-11T10:25:40;95156.53;;;18.51;42.84
73332;BME280;61560;33.718;73.040;2022-12-11T10:28:16;95155.88;;;18.47;43.36
73332;BME280;61560;33.718;73.040;2022-12-11T10:33:33;95139.16;;;18.38;43.11
73332;BME280;61560;33.718;73.040;2022-12-11T10:36:02;95151.03;;;18.38;42.85
73332;BME280;61560;33.718;73.040;2022-12-11T10:38:32;95150.41;;;18.34;43.71
73332;BME280;61560;33.718;73.040;2022-12-11T10:41:03;95151.63;;;18.33;43.82
73332;BME280;61560;33.718;73.040;2022-12-11T10:43:40;95158.41;;;18.32;44.30
73332;BME280;61560;33.718;73.040;2022-12-11T10:46:22;95150.97;;;18.29;44.17
73332;BME280;61560;33.718;73.040;2022-12-11T10:48:53;95145.25;;;18.24;44.35
73332;BME280;61560;33.718;73.040;2022-12-11T10:51:23;95148.03;;;18.24;44.25
73332;BME280;61560;33.718;73.040;2022-12-11T10:53:51;95143.84;;;18.19;44.70
73332;BME280;61560;33.718;73.040;2022-12-11T10:56:29;95137.66;;;18.15;44.67
73332;BME280;61560;33.718;73.040;2022-12-11T10:58:57;95147.66;;;18.13;45.13
73332;BME280;61560;33.718;73.040;2022-12-11T11:01:27;95143.81;;;18.10;44.90
73332;BME280;61560;33.718;73.040;2022-12-11T11:04:05;95149.91;;;18.05;45.06
73332;BME280;61560;33.718;73.040;2022-12-11T11:06:33;95148.50;;;18.00;45.42
73332;BME280;61560;33.718;73.040;2022-12-11T11:09:00;95143.09;;;17.97;45.70
73332;BME280;61560;33.718;73.040;2022-12-11T11:11:31;95148.47;;;17.91;46.17
73332;BME280;61560;33.718;73.040;2022-12-11T11:14:20;95135.63;;;17.85;46.85
73332;BME280;61560;33.718;73.040;2022-12-11T11:16:55;95130.00;;;17.76;46.67
73332;BME280;61560;33.718;73.040;2022-12-11T11:19:28;95136.47;;;17.73;46.98
73332;BME280;61560;33.718;73.040;2022-12-11T11:21:57;95127.19;;;17.67;46.60
73332;BME280;61560;33.718;73.040;2022-12-11T11:24:32;95132.19;;;17.59;46.85
73332;BME280;61560;33.718;73.040;2022-12-11T11:27:01;95125.81;;;17.50;46.71
73332;BME280;61560;33.718;73.040;2022-12-11T11:29:31;95119.41;;;17.40;46.82
73332;BME280;61560;33.718;73.040;2022-12-11T11:32:16;95130.72;;;17.33;46.62
73332;BME280;61560;33.718;73.040;2022-12-11T11:34:45;95125.47;;;17.26;46.51
73332;BME280;61560;33.718;73.040;2022-12-11T11:39:52;95125.16;;;17.11;46.53
73332;BME280;61560;33.718;73.040;2022-12-11T11:48:30;95113.03;;;16.84;46.49
73332;BME280;61560;33.718;73.040;2022-12-11T11:50:59;95107.31;;;16.78;46.43
73332;BME280;61560;33.718;73.040;2022-12-11T11:53:34;95115.38;;;16.73;46.69
73332;BME280;61560;33.718;73.040;2022-12-11T11:56:21;95108.44;;;16.68;46.44
73332;BME280;61560;33.718;73.040;2022-12-11T11:59:12;95112.66;;;16.60;46.49
73332;BME280;61560;33.718;73.040;2022-12-11T12:01:40;95105.47;;;16.50;46.39
73332;BME280;61560;33.718;73.040;2022-12-11T12:04:08;95113.81;;;16.47;46.54
73332;BME280;61560;33.718;73.040;2022-12-11T12:06:55;95111.31;;;16.39;46.64
73332;BME280;61560;33.718;73.040;2022-12-11T12:15:11;95098.78;;;16.22;46.72
73332;BME280;61560;33.718;73.040;2022-12-11T12:20:18;95095.91;;;16.13;47.54
73332;BME280;61560;33.718;73.040;2022-12-11T12:25:41;95090.72;;;16.03;47.89
73332;BME280;61560;33.718;73.040;2022-12-11T12:28:25;95100.41;;;15.95;48.17
73332;BME280;61560;33.718;73.040;2022-12-11T12:37:30;95083.91;;;15.66;49.51
73332;BME280;61560;33.718;73.040;2022-12-11T12:43:08;95102.03;;;15.67;49.82
73332;BME280;61560;33.718;73.040;2022-12-11T12:48:37;95100.25;;;15.61;50.05
73332;BME280;61560;33.718;73.040;2022-12-11T12:51:05;95098.13;;;15.52;50.61
73332;BME280;61560;33.718;73.040;2022-12-11T12:53:33;95099.00;;;15.49;50.39
73332;BME280;61560;33.718;73.040;2022-12-11T12:56:02;95097.13;;;15.46;50.83
73332;BME280;61560;33.718;73.040;2022-12-11T13:01:31;95110.31;;;15.38;51.22
73332;BME280;61560;33.718;73.040;2022-12-11T13:04:05;95106.97;;;15.31;51.39
73332;BME280;61560;33.718;73.040;2022-12-11T13:06:42;95105.97;;;15.25;52.19
73332;BME280;61560;33.718;73.040;2022-12-11T13:09:25;95098.31;;;15.16;52.90
73332;BME280;61560;33.718;73.040;2022-12-11T13:11:55;95099.63;;;15.12;52.97
73332;BME280;61560;33.718;73.040;2022-12-11T13:14:30;95103.22;;;15.09;53.19
73332;BME280;61560;33.718;73.040;2022-12-11T13:17:39;95112.28;;;15.09;52.86
73332;BME280;61560;33.718;73.040;2022-12-11T13:20:14;95103.78;;;15.04;53.05
73332;BME280;61560;33.718;73.040;2022-12-11T13:22:55;95103.09;;;15.00;53.81
73332;BME280;61560;33.718;73.040;2022-12-11T13:25:48;95109.47;;;14.97;54.40
73332;BME280;61560;33.718;73.040;2022-12-11T13:33:40;95110.06;;;14.88;55.13
73332;BME280;61560;33.718;73.040;2022-12-11T13:38:38;95114.66;;;14.78;55.39
73332;BME280;61560;33.718;73.040;2022-12-11T13:41:17;95115.19;;;14.73;55.40
73332;BME280;61560;33.718;73.040;2022-12-11T13:43:46;95118.91;;;14.67;54.79
73332;BME280;61560;33.718;73.040;2022-12-11T13:46:18;95117.44;;;14.62;55.02
73332;BME280;61560;33.718;73.040;2022-12-11T13:49:06;95132.34;;;14.65;55.05
73332;BME280;61560;33.718;73.040;2022-12-11T13:51:34;95119.06;;;14.60;55.83
73332;BME280;61560;33.718;73.040;2022-12-11T13:54:04;95124.22;;;14.58;56.45
73332;BME280;61560;33.718;73.040;2022-12-11T13:56:32;95130.28;;;14.53;56.49
73332;BME280;61560;33.718;73.040;2022-12-11T13:58:59;95123.28;;;14.48;56.86
73332;BME280;61560;33.718;73.040;2022-12-11T14:01:30;95127.91;;;14.51;57.17
73332;BME280;61560;33.718;73.040;2022-12-11T14:04:01;95124.06;;;14.49;57.87
73332;BME280;61560;33.718;73.040;2022-12-11T14:06:29;95122.06;;;14.49;57.96
73332;BME280;61560;33.718;73.040;2022-12-11T14:09:00;95122.16;;;14.46;57.95
73332;BME280;61560;33.718;73.040;2022-12-11T14:11:37;95122.94;;;14.46;58.35
73332;BME280;61560;33.718;73.040;2022-12-11T14:14:16;95130.88;;;14.44;58.29
73332;BME280;61560;33.718;73.040;2022-12-11T14:16:47;95124.72;;;14.37;58.67
73332;BME280;61560;33.718;73.040;2022-12-11T14:19:16;95125.16;;;14.35;58.70
73332;BME280;61560;33.718;73.040;2022-12-11T14:21:57;95126.72;;;14.36;58.63
73332;BME280;61560;33.718;73.040;2022-12-11T14:24:26;95121.63;;;14.35;59.33
73332;BME280;61560;33.718;73.040;2022-12-11T14:26:53;95122.16;;;14.30;59.37
73332;BME280;61560;33.718;73.040;2022-12-11T14:29:31;95123.06;;;14.23;59.18